sensor_id;sensor_type;location;lat;lon;timestamp;pressure;altitude;pressure_sealevel;temperature;humidity
34482;BME280;20720;48.886;9.388;2023-07-22T00:00:44;98307.28;;;18.46;100.00
34482;BME280;20720;48.886;9.388;2023-07-22T00:03:09;98307.22;;;18.20;100.00
34482;BME280;20720;48.886;9.388;2023-07-22T00:05:35;98300.97;;;18.52;100.00
34482;BME280;20720;48.886;9.388;2023-07-22T00:08:00;98308.44;;;18.34;100.00
34482;BME280;20720;48.886;9.388;2023-07-22T00:10:26;98305.91;;;18.22;100.00
34482;BME280;20720;48.886;9.388;2023-07-22T00:12:51;98296.38;;;18.05;100.00
34482;BME280;20720;48.886;9.388;2023-07-22T00:15:16;98298.66;;;18.18;100.00
34482;BME280;20720;48.886;9.388;2023-07-22T00:17:41;98304.66;;;17.86;100.00
34482;BME280;20720;48.886;9.388;2023-07-22T00:20:07;98290.72;;;17.58;100.00
34482;BME280;20720;48.886;9.388;2023-07-22T00:22:37;98295.44;;;17.94;100.00
34482;BME280;20720;48.886;9.388;2023-07-22T00:25:03;98285.31;;;17.69;100.00
34482;BME280;20720;48.886;9.388;2023-07-22T00:27:29;98292.72;;;17.51;100.00
34482;BME280;20720;48.886;9.388;2023-07-22T00:29:54;98291.16;;;17.71;100.00
34482;BME280;20720;48.886;9.388;2023-07-22T00:32:19;98281.13;;;17.40;100.00
34482;BME280;20720;48.886;9.388;2023-07-22T00:34:45;98285.94;;;17.76;100.00
34482;BME280;20720;48.886;9.388;2023-07-22T00:37:10;98295.59;;;17.66;100.00
34482;BME280;20720;48.886;9.388;2023-07-22T00:39:36;98287.41;;;17.34;100.00
34482;BME280;20720;48.886;9.388;2023-07-22T00:42:01;98290.31;;;17.49;100.00
34482;BME280;20720;48.886;9.388;2023-07-22T00:44:26;98296.72;;;17.70;100.00
34482;BME280;20720;48.886;9.388;2023-07-22T00:46:54;98280.16;;;17.46;100.00
34482;BME280;20720;48.886;9.388;2023-07-22T00:49:22;98286.19;;;17.58;100.00
34482;BME280;20720;48.886;9.388;2023-07-22T00:51:48;98280.63;;;17.43;100.00
34482;BME280;20720;48.886;9.388;2023-07-22T00:54:14;98284.34;;;17.42;100.00
34482;BME280;20720;48.886;9.388;2023-07-22T00:56:39;98278.81;;;17.27;100.00
34482;BME280;20720;48.886;9.388;2023-07-22T00:59:05;98281.75;;;17.64;100.00
34482;BME280;20720;48.886;9.388;2023-07-22T01:01:31;98282.00;;;17.62;100.00
34482;BME280;20720;48.886;9.388;2023-07-22T01:03:56;98274.13;;;17.34;100.00
34482;BME280;20720;48.886;9.388;2023-07-22T01:06:22;98276.06;;;17.39;100.00
34482;BME280;20720;48.886;9.388;2023-07-22T01:08:49;98264.72;;;16.77;100.00
34482;BME280;20720;48.886;9.388;2023-07-22T01:11:15;98263.19;;;16.98;100.00
34482;BME280;20720;48.886;9.388;2023-07-22T01:13:40;98267.94;;;17.29;100.00
34482;BME280;20720;48.886;9.388;2023-07-22T01:16:06;98274.69;;;17.36;100.00
34482;BME280;20720;48.886;9.388;2023-07-22T01:18:35;98273.47;;;17.60;100.00
34482;BME280;20720;48.886;9.388;2023-07-22T01:21:00;98281.03;;;17.68;100.00
34482;BME280;20720;48.886;9.388;2023-07-22T01:23:26;98270.31;;;17.47;100.00
34482;BME280;20720;48.886;9.388;2023-07-22T01:25:51;98264.56;;;16.67;100.00
34482;BME280;20720;48.886;9.388;2023-07-22T01:28:17;98260.88;;;17.01;100.00
34482;BME280;20720;48.886;9.388;2023-07-22T01:30:42;98259.41;;;17.27;100.00
34482;BME280;20720;48.886;9.388;2023-07-22T01:33:07;98257.63;;;17.32;100.00
34482;BME280;20720;48.886;9.388;2023-07-22T01:35:33;98263.16;;;17.47;100.00
34482;BME280;20720;48.886;9.388;2023-07-22T01:37:58;98254.97;;;17.32;100.00
34482;BME280;20720;48.886;9.388;2023-07-22T01:40:24;98263.03;;;17.75;100.00
34482;BME280;20720;48.886;9.388;2023-07-22T01:42:49;98270.97;;;17.70;100.00
34482;BME280;20720;48.886;9.388;2023-07-22T01:45:15;98266.78;;;17.41;100.00
34482;BME280;20720;48.886;9.388;2023-07-22T01:47:40;98251.47;;;17.10;100.00
34482;BME280;20720;48.886;9.388;2023-07-22T01:50:06;98255.56;;;17.18;100.00
34482;BME280;20720;48.886;9.388;2023-07-22T01:52:31;98261.41;;;17.36;100.00
34482;BME280;20720;48.886;9.388;2023-07-22T01:54:57;98266.00;;;17.57;100.00
34482;BME280;20720;48.886;9.388;2023-07-22T01:57:22;98268.25;;;17.65;100.00
34482;BME280;20720;48.886;9.388;2023-07-22T01:59:47;98263.75;;;17.49;100.00
34482;BME280;20720;48.886;9.388;2023-07-22T02:02:13;98269.69;;;17.56;100.00
34482;BME280;20720;48.886;9.388;2023-07-22T02:04:38;98268.53;;;17.14;100.00
34482;BME280;20720;48.886;9.388;2023-07-22T02:07:04;98275.44;;;17.48;100.00
34482;BME280;20720;48.886;9.388;2023-07-22T02:09:29;98277.28;;;17.31;100.00
34482;BME280;20720;48.886;9.388;2023-07-22T02:11:54;98273.91;;;17.19;100.00
34482;BME280;20720;48.886;9.388;2023-07-22T02:14:20;98272.13;;;17.25;100.00
34482;BME280;20720;48.886;9.388;2023-07-22T02:16:45;98281.47;;;17.27;100.00
34482;BME280;20720;48.886;9.388;2023-07-22T02:19:10;98272.03;;;16.42;100.00
34482;BME280;20720;48.886;9.388;2023-07-22T02:21:36;98262.31;;;15.79;100.00
34482;BME280;20720;48.886;9.388;2023-07-22T02:24:01;98260.22;;;16.77;100.00
34482;BME280;20720;48.886;9.388;2023-07-22T02:26:26;98285.16;;;17.10;100.00
34482;BME280;20720;48.886;9.388;2023-07-22T02:28:52;98281.31;;;17.17;100.00
34482;BME280;20720;48.886;9.388;2023-07-22T02:31:17;98265.31;;;16.51;100.00
34482;BME280;20720;48.886;9.388;2023-07-22T02:33:42;98269.28;;;16.65;100.00
34482;BME280;20720;48.886;9.388;2023-07-22T02:36:07;98278.22;;;16.92;100.00
34482;BME280;20720;48.886;9.388;2023-07-22T02:38:33;98292.75;;;17.01;100.00
34482;BME280;20720;48.886;9.388;2023-07-22T02:41:03;98288.06;;;17.08;100.00
34482;BME280;20720;48.886;9.388;2023-07-22T02:43:28;98283.31;;;16.93;100.00
34482;BME280;20720;48.886;9.388;2023-07-22T02:45:54;98295.84;;;16.98;100.00
34482;BME280;20720;48.886;9.388;2023-07-22T02:48:20;98292.00;;;16.89;100.00
34482;BME280;20720;48.886;9.388;2023-07-22T02:50:45;98294.56;;;16.84;100.00
34482;BME280;20720;48.886;9.388;2023-07-22T02:53:11;98289.00;;;16.69;100.00
34482;BME280;20720;48.886;9.388;2023-07-22T02:55:36;98286.91;;;16.71;100.00
34482;BME280;20720;48.886;9.388;2023-07-22T02:58:01;98290.13;;;16.73;100.00
34482;BME280;20720;48.886;9.388;2023-07-22T03:00:26;98276.84;;;16.45;100.00
34482;BME280;20720;48.886;9.388;2023-07-22T03:02:54;98267.66;;;16.36;100.00
34482;BME280;20720;48.886;9.388;2023-07-22T03:05:21;98273.97;;;16.46;100.00
34482;BME280;20720;48.886;9.388;2023-07-22T03:07:46;98257.72;;;16.43;100.00
34482;BME280;20720;48.886;9.388;2023-07-22T03:10:11;98259.22;;;16.11;100.00
34482;BME280;20720;48.886;9.388;2023-07-22T03:12:37;98266.53;;;16.60;100.00
34482;BME280;20720;48.886;9.388;2023-07-22T03:15:03;98266.31;;;16.61;100.00
34482;BME280;20720;48.886;9.388;2023-07-22T03:17:29;98280.16;;;16.80;100.00
34482;BME280;20720;48.886;9.388;2023-07-22T03:19:55;98271.78;;;16.71;100.00
34482;BME280;20720;48.886;9.388;2023-07-22T03:22:20;98267.22;;;16.67;100.00
34482;BME280;20720;48.886;9.388;2023-07-22T03:24:45;98260.19;;;16.61;100.00
34482;BME280;20720;48.886;9.388;2023-07-22T03:27:11;98267.94;;;16.79;100.00
34482;BME280;20720;48.886;9.388;2023-07-22T03:29:37;98258.09;;;16.07;100.00
34482;BME280;20720;48.886;9.388;2023-07-22T03:32:03;98265.03;;;16.64;100.00
34482;BME280;20720;48.886;9.388;2023-07-22T03:34:30;98269.59;;;16.52;100.00
34482;BME280;20720;48.886;9.388;2023-07-22T03:36:55;98272.16;;;16.35;100.00
34482;BME280;20720;48.886;9.388;2023-07-22T03:39:21;98257.63;;;16.10;100.00
34482;BME280;20720;48.886;9.388;2023-07-22T03:41:46;98262.41;;;16.52;100.00
34482;BME280;20720;48.886;9.388;2023-07-22T03:44:11;98274.03;;;16.63;100.00
34482;BME280;20720;48.886;9.388;2023-07-22T03:46:37;98279.41;;;16.68;100.00
34482;BME280;20720;48.886;9.388;2023-07-22T03:49:03;98272.91;;;16.59;100.00
34482;BME280;20720;48.886;9.388;2023-07-22T03:51:28;98268.56;;;16.41;100.00
34482;BME280;20720;48.886;9.388;2023-07-22T03:53:53;98268.56;;;16.41;100.00
34482;BME280;20720;48.886;9.388;2023-07-22T03:56:20;98276.06;;;16.44;100.00
34482;BME280;20720;48.886;9.388;2023-07-22T03:58:45;98280.28;;;16.57;100.00
34482;BME280;20720;48.886;9.388;2023-07-22T04:01:11;98278.28;;;15.96;100.00
34482;BME280;20720;48.886;9.388;2023-07-22T04:03:36;98274.94;;;16.00;100.00
34482;BME280;20720;48.886;9.388;2023-07-22T04:06:02;98256.47;;;15.43;100.00
34482;BME280;20720;48.886;9.388;2023-07-22T04:08:27;98271.81;;;16.03;100.00
34482;BME280;20720;48.886;9.388;2023-07-22T04:10:56;98284.66;;;16.63;100.00
34482;BME280;20720;48.886;9.388;2023-07-22T04:13:23;98296.09;;;16.80;100.00
34482;BME280;20720;48.886;9.388;2023-07-22T04:15:48;98288.22;;;16.85;100.00
34482;BME280;20720;48.886;9.388;2023-07-22T04:18:17;98290.94;;;16.90;100.00
34482;BME280;20720;48.886;9.388;2023-07-22T04:20:43;98293.16;;;16.65;100.00
34482;BME280;20720;48.886;9.388;2023-07-22T04:23:09;98291.28;;;16.93;100.00
34482;BME280;20720;48.886;9.388;2023-07-22T04:25:39;98285.97;;;16.93;100.00
34482;BME280;20720;48.886;9.388;2023-07-22T04:28:04;98292.97;;;17.00;100.00
34482;BME280;20720;48.886;9.388;2023-07-22T04:30:30;98290.16;;;17.06;100.00
34482;BME280;20720;48.886;9.388;2023-07-22T04:32:55;98290.41;;;17.05;100.00
34482;BME280;20720;48.886;9.388;2023-07-22T04:35:20;98269.78;;;15.82;100.00
34482;BME280;20720;48.886;9.388;2023-07-22T04:37:46;98282.38;;;17.16;100.00
34482;BME280;20720;48.886;9.388;2023-07-22T04:40:12;98288.72;;;17.48;100.00
34482;BME280;20720;48.886;9.388;2023-07-22T04:42:42;98296.44;;;17.33;100.00
34482;BME280;20720;48.886;9.388;2023-07-22T04:45:08;98280.56;;;17.38;100.00
34482;BME280;20720;48.886;9.388;2023-07-22T04:47:39;98278.22;;;17.58;100.00
34482;BME280;20720;48.886;9.388;2023-07-22T04:50:05;98283.69;;;17.68;100.00
34482;BME280;20720;48.886;9.388;2023-07-22T04:52:34;98282.34;;;17.49;100.00
34482;BME280;20720;48.886;9.388;2023-07-22T04:54:59;98283.63;;;17.85;100.00
34482;BME280;20720;48.886;9.388;2023-07-22T04:57:25;98278.56;;;18.27;100.00
34482;BME280;20720;48.886;9.388;2023-07-22T04:59:50;98291.31;;;18.73;100.00
34482;BME280;20720;48.886;9.388;2023-07-22T05:02:15;98295.69;;;18.84;100.00
34482;BME280;20720;48.886;9.388;2023-07-22T05:04:40;98289.00;;;19.45;100.00
34482;BME280;20720;48.886;9.388;2023-07-22T05:07:06;98291.56;;;19.72;100.00
34482;BME280;20720;48.886;9.388;2023-07-22T05:09:31;98295.03;;;20.19;100.00
34482;BME280;20720;48.886;9.388;2023-07-22T05:11:56;98303.69;;;20.61;100.00
34482;BME280;20720;48.886;9.388;2023-07-22T05:14:23;98310.16;;;20.95;100.00
34482;BME280;20720;48.886;9.388;2023-07-22T05:16:49;98322.47;;;21.01;100.00
34482;BME280;20720;48.886;9.388;2023-07-22T05:19:14;98318.16;;;20.90;100.00
34482;BME280;20720;48.886;9.388;2023-07-22T05:21:39;98320.28;;;20.68;100.00
34482;BME280;20720;48.886;9.388;2023-07-22T05:24:06;98326.78;;;21.22;100.00
34482;BME280;20720;48.886;9.388;2023-07-22T05:26:31;98328.63;;;21.47;100.00
34482;BME280;20720;48.886;9.388;2023-07-22T05:28:56;98325.94;;;21.62;99.04
34482;BME280;20720;48.886;9.388;2023-07-22T05:31:21;98335.50;;;22.08;96.91
34482;BME280;20720;48.886;9.388;2023-07-22T05:33:47;98336.38;;;22.53;92.10
34482;BME280;20720;48.886;9.388;2023-07-22T05:36:12;98341.53;;;22.44;93.71
34482;BME280;20720;48.886;9.388;2023-07-22T05:38:37;98345.81;;;22.99;89.42
34482;BME280;20720;48.886;9.388;2023-07-22T05:41:03;98348.06;;;23.20;85.94
34482;BME280;20720;48.886;9.388;2023-07-22T05:43:28;98350.50;;;22.78;88.59
34482;BME280;20720;48.886;9.388;2023-07-22T05:45:53;98354.84;;;22.54;90.08
34482;BME280;20720;48.886;9.388;2023-07-22T05:48:18;98351.09;;;22.65;90.98
34482;BME280;20720;48.886;9.388;2023-07-22T05:50:44;98354.72;;;20.13;100.00
34482;BME280;20720;48.886;9.388;2023-07-22T05:53:09;98356.69;;;21.75;100.00
34482;BME280;20720;48.886;9.388;2023-07-22T05:55:34;98350.22;;;23.18;90.83
34482;BME280;20720;48.886;9.388;2023-07-22T05:58:00;98354.81;;;22.74;92.67
34482;BME280;20720;48.886;9.388;2023-07-22T06:00:30;98362.03;;;21.70;100.00
34482;BME280;20720;48.886;9.388;2023-07-22T06:02:55;98366.72;;;22.38;94.84
34482;BME280;20720;48.886;9.388;2023-07-22T06:05:21;98365.09;;;23.40;88.39
34482;BME280;20720;48.886;9.388;2023-07-22T06:07:46;98369.28;;;23.56;84.32
34482;BME280;20720;48.886;9.388;2023-07-22T06:10:11;98372.06;;;24.50;80.86
34482;BME280;20720;48.886;9.388;2023-07-22T06:12:37;98371.09;;;24.41;78.37
34482;BME280;20720;48.886;9.388;2023-07-22T06:15:03;98379.13;;;23.94;82.47
34482;BME280;20720;48.886;9.388;2023-07-22T06:17:29;98386.69;;;24.15;79.95
34482;BME280;20720;48.886;9.388;2023-07-22T06:19:54;98374.34;;;23.86;80.97
34482;BME280;20720;48.886;9.388;2023-07-22T06:22:19;98377.84;;;23.58;81.99
34482;BME280;20720;48.886;9.388;2023-07-22T06:24:45;98382.72;;;23.51;83.11
34482;BME280;20720;48.886;9.388;2023-07-22T06:27:10;98391.50;;;23.90;80.35
34482;BME280;20720;48.886;9.388;2023-07-22T06:29:35;98382.22;;;24.06;79.23
34482;BME280;20720;48.886;9.388;2023-07-22T06:32:00;98385.06;;;24.43;79.37
34482;BME280;20720;48.886;9.388;2023-07-22T06:34:26;98382.03;;;24.73;76.67
34482;BME280;20720;48.886;9.388;2023-07-22T06:36:51;98386.63;;;25.61;74.11
34482;BME280;20720;48.886;9.388;2023-07-22T06:39:16;98385.13;;;25.36;74.95
34482;BME280;20720;48.886;9.388;2023-07-22T06:41:42;98387.78;;;24.62;74.11
34482;BME280;20720;48.886;9.388;2023-07-22T06:44:07;98381.19;;;24.02;80.17
34482;BME280;20720;48.886;9.388;2023-07-22T06:46:32;98389.44;;;24.34;77.15
34482;BME280;20720;48.886;9.388;2023-07-22T06:48:59;98390.22;;;25.00;73.08
34482;BME280;20720;48.886;9.388;2023-07-22T06:51:24;98390.28;;;25.33;73.61
34482;BME280;20720;48.886;9.388;2023-07-22T06:53:49;98385.22;;;25.12;71.37
34482;BME280;20720;48.886;9.388;2023-07-22T06:56:15;98387.03;;;24.80;72.62
34482;BME280;20720;48.886;9.388;2023-07-22T06:58:40;98397.66;;;25.46;68.41
34482;BME280;20720;48.886;9.388;2023-07-22T07:01:05;98393.78;;;25.52;69.37
34482;BME280;20720;48.886;9.388;2023-07-22T07:03:30;98394.38;;;26.67;66.01
34482;BME280;20720;48.886;9.388;2023-07-22T07:05:56;98391.19;;;26.11;66.04
34482;BME280;20720;48.886;9.388;2023-07-22T07:08:23;98390.19;;;26.34;66.09
34482;BME280;20720;48.886;9.388;2023-07-22T07:10:49;98394.50;;;26.76;64.44
34482;BME280;20720;48.886;9.388;2023-07-22T07:13:14;98403.78;;;27.55;61.65
34482;BME280;20720;48.886;9.388;2023-07-22T07:15:39;98406.59;;;25.60;67.46
34482;BME280;20720;48.886;9.388;2023-07-22T07:18:05;98396.47;;;25.52;69.22
34482;BME280;20720;48.886;9.388;2023-07-22T07:20:30;98404.75;;;25.55;67.71
34482;BME280;20720;48.886;9.388;2023-07-22T07:22:56;98402.94;;;25.13;69.75
34482;BME280;20720;48.886;9.388;2023-07-22T07:25:21;98397.22;;;24.59;72.60
34482;BME280;20720;48.886;9.388;2023-07-22T07:27:47;98398.56;;;26.46;66.08
34482;BME280;20720;48.886;9.388;2023-07-22T07:30:12;98398.00;;;27.12;63.01
34482;BME280;20720;48.886;9.388;2023-07-22T07:32:37;98402.97;;;25.83;66.60
34482;BME280;20720;48.886;9.388;2023-07-22T07:35:03;98401.56;;;26.31;64.56
34482;BME280;20720;48.886;9.388;2023-07-22T07:37:29;98408.75;;;26.90;61.34
34482;BME280;20720;48.886;9.388;2023-07-22T07:39:55;98415.81;;;27.49;57.96
34482;BME280;20720;48.886;9.388;2023-07-22T07:42:25;98400.00;;;28.09;55.75
34482;BME280;20720;48.886;9.388;2023-07-22T07:44:50;98403.03;;;26.91;58.85
34482;BME280;20720;48.886;9.388;2023-07-22T07:47:17;98406.63;;;27.80;57.77
34482;BME280;20720;48.886;9.388;2023-07-22T07:49:42;98404.50;;;27.69;58.07
34482;BME280;20720;48.886;9.388;2023-07-22T07:52:07;98403.84;;;27.85;57.66
34482;BME280;20720;48.886;9.388;2023-07-22T07:54:32;98398.19;;;27.96;57.31
34482;BME280;20720;48.886;9.388;2023-07-22T07:56:58;98400.00;;;27.86;57.37
34482;BME280;20720;48.886;9.388;2023-07-22T07:59:23;98394.56;;;26.98;60.01
34482;BME280;20720;48.886;9.388;2023-07-22T08:01:48;98393.09;;;27.72;57.06
34482;BME280;20720;48.886;9.388;2023-07-22T08:04:13;98401.22;;;28.33;55.32
34482;BME280;20720;48.886;9.388;2023-07-22T08:06:39;98399.56;;;26.50;61.86
34482;BME280;20720;48.886;9.388;2023-07-22T08:09:04;98400.53;;;26.95;60.85
34482;BME280;20720;48.886;9.388;2023-07-22T08:11:30;98388.88;;;29.40;53.62
34482;BME280;20720;48.886;9.388;2023-07-22T08:13:56;98397.16;;;28.53;53.94
34482;BME280;20720;48.886;9.388;2023-07-22T08:16:21;98396.66;;;28.42;55.10
34482;BME280;20720;48.886;9.388;2023-07-22T08:18:46;98402.72;;;27.07;57.83
34482;BME280;20720;48.886;9.388;2023-07-22T08:21:12;98396.94;;;28.41;55.25
34482;BME280;20720;48.886;9.388;2023-07-22T08:23:37;98387.16;;;29.35;53.67
34482;BME280;20720;48.886;9.388;2023-07-22T08:26:03;98396.63;;;28.82;52.91
34482;BME280;20720;48.886;9.388;2023-07-22T08:28:30;98391.88;;;28.96;54.34
34482;BME280;20720;48.886;9.388;2023-07-22T08:30:56;98387.59;;;29.63;52.74
34482;BME280;20720;48.886;9.388;2023-07-22T08:33:22;98389.16;;;29.64;52.11
34482;BME280;20720;48.886;9.388;2023-07-22T08:35:48;98391.41;;;29.62;52.49
34482;BME280;20720;48.886;9.388;2023-07-22T08:38:15;98384.75;;;28.52;53.30
34482;BME280;20720;48.886;9.388;2023-07-22T08:40:40;98385.69;;;28.08;54.50
34482;BME280;20720;48.886;9.388;2023-07-22T08:43:08;98386.69;;;29.16;51.95
34482;BME280;20720;48.886;9.388;2023-07-22T08:45:35;98387.16;;;27.92;55.14
34482;BME280;20720;48.886;9.388;2023-07-22T08:48:05;98376.34;;;27.92;55.24
34482;BME280;20720;48.886;9.388;2023-07-22T08:50:55;98374.31;;;28.28;53.72
34482;BME280;20720;48.886;9.388;2023-07-22T08:53:23;98375.44;;;28.27;53.33
34482;BME280;20720;48.886;9.388;2023-07-22T08:55:50;98380.22;;;29.98;49.53
34482;BME280;20720;48.886;9.388;2023-07-22T08:58:16;98368.59;;;30.26;48.37
34482;BME280;20720;48.886;9.388;2023-07-22T09:00:42;98372.09;;;27.25;52.09
34482;BME280;20720;48.886;9.388;2023-07-22T09:03:07;98368.34;;;28.40;52.27
34482;BME280;20720;48.886;9.388;2023-07-22T09:05:35;98373.09;;;29.76;49.65
34482;BME280;20720;48.886;9.388;2023-07-22T09:08:06;98367.31;;;27.66;50.47
34482;BME280;20720;48.886;9.388;2023-07-22T09:10:32;98367.22;;;29.23;49.59
34482;BME280;20720;48.886;9.388;2023-07-22T09:12:59;98365.88;;;30.26;49.27
34482;BME280;20720;48.886;9.388;2023-07-22T09:15:26;98371.56;;;30.13;48.86
34482;BME280;20720;48.886;9.388;2023-07-22T09:17:51;98366.91;;;30.13;48.15
34482;BME280;20720;48.886;9.388;2023-07-22T09:20:17;98370.91;;;27.17;54.51
34482;BME280;20720;48.886;9.388;2023-07-22T09:22:51;98366.09;;;27.72;54.17
34482;BME280;20720;48.886;9.388;2023-07-22T09:25:22;98366.00;;;26.02;57.97
34482;BME280;20720;48.886;9.388;2023-07-22T09:27:49;98362.84;;;27.39;55.53
34482;BME280;20720;48.886;9.388;2023-07-22T09:30:22;98365.22;;;27.85;55.44
34482;BME280;20720;48.886;9.388;2023-07-22T09:32:48;98363.84;;;28.35;53.73
34482;BME280;20720;48.886;9.388;2023-07-22T09:35:13;98365.38;;;28.58;54.24
34482;BME280;20720;48.886;9.388;2023-07-22T09:37:38;98361.31;;;28.95;53.45
34482;BME280;20720;48.886;9.388;2023-07-22T09:42:52;98358.47;;;29.17;52.51
34482;BME280;20720;48.886;9.388;2023-07-22T09:45:19;98355.19;;;31.83;47.60
34482;BME280;20720;48.886;9.388;2023-07-22T09:47:47;98355.16;;;30.01;48.41
34482;BME280;20720;48.886;9.388;2023-07-22T09:50:15;98354.97;;;29.34;49.62
34482;BME280;20720;48.886;9.388;2023-07-22T09:52:43;98358.03;;;27.50;54.65
34482;BME280;20720;48.886;9.388;2023-07-22T09:55:09;98358.31;;;28.49;52.62
34482;BME280;20720;48.886;9.388;2023-07-22T09:57:35;98347.88;;;28.08;52.56
34482;BME280;20720;48.886;9.388;2023-07-22T10:00:01;98365.91;;;30.35;49.99
34482;BME280;20720;48.886;9.388;2023-07-22T10:02:26;98355.88;;;31.47;45.79
34482;BME280;20720;48.886;9.388;2023-07-22T10:04:52;98351.53;;;32.60;45.10
34482;BME280;20720;48.886;9.388;2023-07-22T10:07:19;98346.03;;;32.84;42.79
34482;BME280;20720;48.886;9.388;2023-07-22T10:09:46;98339.91;;;33.66;39.82
34482;BME280;20720;48.886;9.388;2023-07-22T10:12:11;98334.06;;;32.12;43.55
34482;BME280;20720;48.886;9.388;2023-07-22T10:14:40;98341.91;;;33.69;40.22
34482;BME280;20720;48.886;9.388;2023-07-22T10:17:06;98337.28;;;30.96;44.49
34482;BME280;20720;48.886;9.388;2023-07-22T10:19:31;98327.72;;;31.31;43.50
34482;BME280;20720;48.886;9.388;2023-07-22T10:21:57;98326.22;;;34.09;39.84
34482;BME280;20720;48.886;9.388;2023-07-22T10:24:23;98331.78;;;33.54;40.79
34482;BME280;20720;48.886;9.388;2023-07-22T10:26:48;98332.00;;;32.82;41.00
34482;BME280;20720;48.886;9.388;2023-07-22T10:29:16;98335.00;;;33.87;38.91
34482;BME280;20720;48.886;9.388;2023-07-22T10:31:43;98325.75;;;32.81;39.26
34482;BME280;20720;48.886;9.388;2023-07-22T10:34:08;98329.50;;;32.77;40.28
34482;BME280;20720;48.886;9.388;2023-07-22T10:36:35;98321.16;;;32.33;40.62
34482;BME280;20720;48.886;9.388;2023-07-22T10:39:00;98325.69;;;32.05;41.63
34482;BME280;20720;48.886;9.388;2023-07-22T10:41:26;98328.25;;;30.33;46.05
34482;BME280;20720;48.886;9.388;2023-07-22T10:43:56;98323.88;;;28.71;47.03
34482;BME280;20720;48.886;9.388;2023-07-22T10:46:36;98326.56;;;29.65;46.13
34482;BME280;20720;48.886;9.388;2023-07-22T10:49:10;98319.16;;;31.86;43.55
34482;BME280;20720;48.886;9.388;2023-07-22T10:51:36;98317.50;;;34.20;39.25
34482;BME280;20720;48.886;9.388;2023-07-22T10:54:02;98327.81;;;33.24;39.11
34482;BME280;20720;48.886;9.388;2023-07-22T10:56:28;98323.16;;;32.73;40.80
34482;BME280;20720;48.886;9.388;2023-07-22T11:04:04;98311.41;;;32.57;39.09
34482;BME280;20720;48.886;9.388;2023-07-22T11:06:30;98313.91;;;34.00;38.45
34482;BME280;20720;48.886;9.388;2023-07-22T11:08:56;98308.22;;;34.40;37.34
34482;BME280;20720;48.886;9.388;2023-07-22T11:11:21;98303.44;;;33.15;38.91
34482;BME280;20720;48.886;9.388;2023-07-22T11:14:13;98307.72;;;34.34;37.25
34482;BME280;20720;48.886;9.388;2023-07-22T11:16:38;98299.63;;;33.75;36.71
34482;BME280;20720;48.886;9.388;2023-07-22T11:19:04;98302.53;;;32.60;37.53
34482;BME280;20720;48.886;9.388;2023-07-22T11:21:29;98288.72;;;32.53;37.68
34482;BME280;20720;48.886;9.388;2023-07-22T11:23:55;98287.28;;;32.95;36.80
34482;BME280;20720;48.886;9.388;2023-07-22T11:26:20;98282.19;;;30.75;39.70
34482;BME280;20720;48.886;9.388;2023-07-22T11:28:46;98284.19;;;33.24;36.50
34482;BME280;20720;48.886;9.388;2023-07-22T11:31:11;98279.69;;;31.23;39.78
34482;BME280;20720;48.886;9.388;2023-07-22T11:33:41;98278.16;;;31.34;39.52
34482;BME280;20720;48.886;9.388;2023-07-22T11:36:09;98280.34;;;32.97;37.61
34482;BME280;20720;48.886;9.388;2023-07-22T11:38:34;98269.53;;;31.77;38.33
34482;BME280;20720;48.886;9.388;2023-07-22T11:41:00;98268.63;;;31.73;37.95
34482;BME280;20720;48.886;9.388;2023-07-22T11:43:26;98264.25;;;32.28;37.26
34482;BME280;20720;48.886;9.388;2023-07-22T11:45:51;98264.88;;;31.65;37.92
34482;BME280;20720;48.886;9.388;2023-07-22T11:48:16;98266.97;;;29.65;39.98
34482;BME280;20720;48.886;9.388;2023-07-22T11:50:42;98271.97;;;29.93;40.41
34482;BME280;20720;48.886;9.388;2023-07-22T11:53:08;98270.38;;;30.71;38.73
34482;BME280;20720;48.886;9.388;2023-07-22T11:55:35;98263.94;;;30.84;39.08
34482;BME280;20720;48.886;9.388;2023-07-22T11:58:01;98264.72;;;30.84;38.61
34482;BME280;20720;48.886;9.388;2023-07-22T12:00:26;98257.53;;;30.80;39.07
34482;BME280;20720;48.886;9.388;2023-07-22T12:02:51;98251.31;;;32.37;37.66
34482;BME280;20720;48.886;9.388;2023-07-22T12:05:22;98250.09;;;34.55;34.97
34482;BME280;20720;48.886;9.388;2023-07-22T12:07:47;98241.47;;;34.72;34.50
34482;BME280;20720;48.886;9.388;2023-07-22T12:10:12;98248.53;;;34.73;33.75
34482;BME280;20720;48.886;9.388;2023-07-22T12:12:46;98244.13;;;33.68;34.38
34482;BME280;20720;48.886;9.388;2023-07-22T12:15:19;98236.25;;;35.66;33.25
34482;BME280;20720;48.886;9.388;2023-07-22T12:20:27;98238.31;;;34.89;32.69
34482;BME280;20720;48.886;9.388;2023-07-22T12:22:53;98229.06;;;33.89;33.63
34482;BME280;20720;48.886;9.388;2023-07-22T12:25:18;98222.31;;;35.48;32.36
34482;BME280;20720;48.886;9.388;2023-07-22T12:27:44;98221.50;;;36.45;32.10
34482;BME280;20720;48.886;9.388;2023-07-22T12:30:10;98216.09;;;37.52;30.58
34482;BME280;20720;48.886;9.388;2023-07-22T12:32:35;98211.22;;;36.98;31.23
34482;BME280;20720;48.886;9.388;2023-07-22T12:35:01;98213.31;;;33.83;34.37
34482;BME280;20720;48.886;9.388;2023-07-22T12:37:28;98208.34;;;34.73;32.10
34482;BME280;20720;48.886;9.388;2023-07-22T12:39:53;98205.44;;;32.64;33.89
34482;BME280;20720;48.886;9.388;2023-07-22T12:42:19;98197.66;;;31.98;36.17
34482;BME280;20720;48.886;9.388;2023-07-22T12:44:44;98199.38;;;32.42;36.27
34482;BME280;20720;48.886;9.388;2023-07-22T12:47:09;98199.22;;;32.11;36.45
34482;BME280;20720;48.886;9.388;2023-07-22T12:49:34;98211.06;;;34.92;32.84
34482;BME280;20720;48.886;9.388;2023-07-22T12:52:00;98198.88;;;33.98;33.41
34482;BME280;20720;48.886;9.388;2023-07-22T12:54:30;98185.75;;;32.42;35.79
34482;BME280;20720;48.886;9.388;2023-07-22T12:56:56;98187.69;;;30.56;37.70
34482;BME280;20720;48.886;9.388;2023-07-22T12:59:22;98191.63;;;30.58;38.35